sensor_id;sensor_type;location;lat;lon;timestamp;P1;durP1;ratioP1;P2;durP2;ratioP2
35550;SDS011;21655;46.056;13.616;2022-10-18T00:01:55;53.35;;;28.83;;
35550;SDS011;21655;46.056;13.616;2022-10-18T00:04:20;49.83;;;28.05;;
35550;SDS011;21655;46.056;13.616;2022-10-18T00:06:46;49.28;;;27.98;;
35550;SDS011;21655;46.056;13.616;2022-10-18T00:09:11;50.13;;;27.25;;
35550;SDS011;21655;46.056;13.616;2022-10-18T00:11:37;54.22;;;27.67;;
35550;SDS011;21655;46.056;13.616;2022-10-18T00:14:03;47.80;;;27.27;;
35550;SDS011;21655;46.056;13.616;2022-10-18T00:16:29;52.28;;;27.15;;
35550;SDS011;21655;46.056;13.616;2022-10-18T00:18:54;49.25;;;26.17;;
35550;SDS011;21655;46.056;13.616;2022-10-18T00:21:21;42.50;;;26.25;;
35550;SDS011;21655;46.056;13.616;2022-10-18T00:23:48;47.10;;;25.98;;
35550;SDS011;21655;46.056;13.616;2022-10-18T00:26:18;41.30;;;25.65;;
35550;SDS011;21655;46.056;13.616;2022-10-18T00:28:48;42.33;;;26.25;;
35550;SDS011;21655;46.056;13.616;2022-10-18T00:33:54;45.47;;;26.42;;
35550;SDS011;21655;46.056;13.616;2022-10-18T00:36:21;50.80;;;26.60;;
35550;SDS011;21655;46.056;13.616;2022-10-18T00:38:47;46.58;;;25.52;;
35550;SDS011;21655;46.056;13.616;2022-10-18T00:41:17;42.45;;;26.23;;
35550;SDS011;21655;46.056;13.616;2022-10-18T00:46:17;47.95;;;26.05;;
35550;SDS011;21655;46.056;13.616;2022-10-18T00:48:42;42.10;;;26.08;;
35550;SDS011;21655;46.056;13.616;2022-10-18T00:51:08;44.83;;;25.48;;
35550;SDS011;21655;46.056;13.616;2022-10-18T00:53:34;44.08;;;25.75;;
35550;SDS011;21655;46.056;13.616;2022-10-18T00:56:00;48.97;;;26.48;;
35550;SDS011;21655;46.056;13.616;2022-10-18T00:58:25;44.33;;;26.05;;
35550;SDS011;21655;46.056;13.616;2022-10-18T01:00:51;46.92;;;25.65;;
35550;SDS011;21655;46.056;13.616;2022-10-18T01:03:16;48.20;;;25.98;;
35550;SDS011;21655;46.056;13.616;2022-10-18T01:05:43;47.53;;;24.30;;
35550;SDS011;21655;46.056;13.616;2022-10-18T01:08:31;40.40;;;24.10;;
35550;SDS011;21655;46.056;13.616;2022-10-18T01:17:37;43.80;;;25.10;;
35550;SDS011;21655;46.056;13.616;2022-10-18T01:20:02;49.05;;;27.23;;
35550;SDS011;21655;46.056;13.616;2022-10-18T01:22:43;40.88;;;25.52;;
35550;SDS011;21655;46.056;13.616;2022-10-18T01:36:02;69.53;;;27.23;;
35550;SDS011;21655;46.056;13.616;2022-10-18T01:38:32;46.92;;;24.85;;
35550;SDS011;21655;46.056;13.616;2022-10-18T01:41:01;48.75;;;26.85;;
35550;SDS011;21655;46.056;13.616;2022-10-18T01:43:29;55.75;;;28.13;;
35550;SDS011;21655;46.056;13.616;2022-10-18T01:45:58;48.63;;;28.40;;
35550;SDS011;21655;46.056;13.616;2022-10-18T01:48:24;49.15;;;26.73;;
35550;SDS011;21655;46.056;13.616;2022-10-18T01:50:51;51.20;;;26.73;;
35550;SDS011;21655;46.056;13.616;2022-10-18T01:55:54;47.05;;;26.42;;
35550;SDS011;21655;46.056;13.616;2022-10-18T01:58:49;47.17;;;28.73;;
35550;SDS011;21655;46.056;13.616;2022-10-18T02:01:40;55.47;;;27.35;;
35550;SDS011;21655;46.056;13.616;2022-10-18T02:06:45;51.75;;;27.70;;
35550;SDS011;21655;46.056;13.616;2022-10-18T02:09:19;47.83;;;27.57;;
35550;SDS011;21655;46.056;13.616;2022-10-18T02:11:57;54.92;;;26.95;;
35550;SDS011;21655;46.056;13.616;2022-10-18T02:14:24;51.22;;;27.60;;
35550;SDS011;21655;46.056;13.616;2022-10-18T02:16:52;48.10;;;27.85;;
35550;SDS011;21655;46.056;13.616;2022-10-18T02:19:25;45.65;;;27.23;;
35550;SDS011;21655;46.056;13.616;2022-10-18T02:22:03;45.78;;;25.45;;
35550;SDS011;21655;46.056;13.616;2022-10-18T02:24:35;48.15;;;28.55;;
35550;SDS011;21655;46.056;13.616;2022-10-18T02:27:03;51.85;;;27.73;;
35550;SDS011;21655;46.056;13.616;2022-10-18T02:29:29;44.20;;;28.35;;
35550;SDS011;21655;46.056;13.616;2022-10-18T02:32:05;48.03;;;27.90;;
35550;SDS011;21655;46.056;13.616;2022-10-18T02:34:36;51.42;;;27.02;;
35550;SDS011;21655;46.056;13.616;2022-10-18T02:37:05;52.90;;;27.13;;
35550;SDS011;21655;46.056;13.616;2022-10-18T02:39:36;44.25;;;26.27;;
35550;SDS011;21655;46.056;13.616;2022-10-18T02:42:08;50.58;;;27.05;;
35550;SDS011;21655;46.056;13.616;2022-10-18T02:44:34;44.50;;;26.40;;
35550;SDS011;21655;46.056;13.616;2022-10-18T02:47:01;48.88;;;27.25;;
35550;SDS011;21655;46.056;13.616;2022-10-18T02:49:27;47.97;;;28.35;;
35550;SDS011;21655;46.056;13.616;2022-10-18T02:51:53;52.22;;;28.52;;
35550;SDS011;21655;46.056;13.616;2022-10-18T02:54:18;46.75;;;28.13;;
35550;SDS011;21655;46.056;13.616;2022-10-18T02:56:43;43.80;;;26.80;;
35550;SDS011;21655;46.056;13.616;2022-10-18T02:59:09;45.25;;;27.63;;
35550;SDS011;21655;46.056;13.616;2022-10-18T03:01:35;46.47;;;27.75;;
35550;SDS011;21655;46.056;13.616;2022-10-18T03:04:01;48.15;;;27.15;;
35550;SDS011;21655;46.056;13.616;2022-10-18T03:06:27;42.33;;;27.00;;
35550;SDS011;21655;46.056;13.616;2022-10-18T03:08:52;49.80;;;26.55;;
35550;SDS011;21655;46.056;13.616;2022-10-18T03:11:18;46.30;;;26.70;;
35550;SDS011;21655;46.056;13.616;2022-10-18T03:13:43;49.03;;;27.50;;
35550;SDS011;21655;46.056;13.616;2022-10-18T03:16:09;50.22;;;29.20;;
35550;SDS011;21655;46.056;13.616;2022-10-18T03:18:34;46.53;;;27.77;;
35550;SDS011;21655;46.056;13.616;2022-10-18T03:21:06;59.42;;;30.00;;
35550;SDS011;21655;46.056;13.616;2022-10-18T03:23:32;51.22;;;28.40;;
35550;SDS011;21655;46.056;13.616;2022-10-18T03:25:58;52.45;;;28.20;;
35550;SDS011;21655;46.056;13.616;2022-10-18T03:28:23;49.13;;;28.08;;
35550;SDS011;21655;46.056;13.616;2022-10-18T03:30:49;49.97;;;29.30;;
35550;SDS011;21655;46.056;13.616;2022-10-18T03:33:14;51.38;;;27.48;;
35550;SDS011;21655;46.056;13.616;2022-10-18T03:35:41;47.10;;;28.08;;
35550;SDS011;21655;46.056;13.616;2022-10-18T03:38:06;48.40;;;28.88;;
35550;SDS011;21655;46.056;13.616;2022-10-18T03:40:32;46.72;;;29.50;;
35550;SDS011;21655;46.056;13.616;2022-10-18T03:42:57;50.55;;;28.17;;
35550;SDS011;21655;46.056;13.616;2022-10-18T03:45:22;50.20;;;27.35;;
35550;SDS011;21655;46.056;13.616;2022-10-18T03:47:49;58.83;;;27.58;;
35550;SDS011;21655;46.056;13.616;2022-10-18T03:50:14;49.40;;;25.92;;
35550;SDS011;21655;46.056;13.616;2022-10-18T03:52:40;46.67;;;25.45;;
35550;SDS011;21655;46.056;13.616;2022-10-18T03:55:05;49.47;;;27.02;;
35550;SDS011;21655;46.056;13.616;2022-10-18T03:57:31;50.97;;;26.27;;
35550;SDS011;21655;46.056;13.616;2022-10-18T03:59:57;46.67;;;26.17;;
35550;SDS011;21655;46.056;13.616;2022-10-18T04:02:22;43.88;;;26.52;;
35550;SDS011;21655;46.056;13.616;2022-10-18T04:04:48;43.85;;;27.35;;
35550;SDS011;21655;46.056;13.616;2022-10-18T04:07:14;45.42;;;27.42;;
35550;SDS011;21655;46.056;13.616;2022-10-18T04:09:39;49.25;;;27.73;;
35550;SDS011;21655;46.056;13.616;2022-10-18T04:12:05;48.60;;;27.75;;
35550;SDS011;21655;46.056;13.616;2022-10-18T04:14:30;54.28;;;29.10;;
35550;SDS011;21655;46.056;13.616;2022-10-18T04:16:56;47.30;;;28.67;;
35550;SDS011;21655;46.056;13.616;2022-10-18T04:19:21;44.72;;;26.98;;
35550;SDS011;21655;46.056;13.616;2022-10-18T04:21:46;46.85;;;26.40;;
35550;SDS011;21655;46.056;13.616;2022-10-18T04:24:12;57.28;;;27.98;;
35550;SDS011;21655;46.056;13.616;2022-10-18T04:26:37;47.67;;;28.55;;
35550;SDS011;21655;46.056;13.616;2022-10-18T04:29:02;43.92;;;27.00;;
35550;SDS011;21655;46.056;13.616;2022-10-18T04:31:28;40.42;;;26.17;;
35550;SDS011;21655;46.056;13.616;2022-10-18T04:33:53;46.70;;;27.23;;
35550;SDS011;21655;46.056;13.616;2022-10-18T04:36:19;40.78;;;26.27;;
35550;SDS011;21655;46.056;13.616;2022-10-18T04:38:44;45.15;;;26.35;;
35550;SDS011;21655;46.056;13.616;2022-10-18T04:41:09;48.33;;;26.30;;
35550;SDS011;21655;46.056;13.616;2022-10-18T04:43:35;47.22;;;28.45;;
35550;SDS011;21655;46.056;13.616;2022-10-18T04:46:00;44.33;;;26.65;;
35550;SDS011;21655;46.056;13.616;2022-10-18T04:48:25;43.47;;;25.42;;
35550;SDS011;21655;46.056;13.616;2022-10-18T04:50:51;48.58;;;27.58;;
35550;SDS011;21655;46.056;13.616;2022-10-18T04:53:16;46.90;;;26.45;;
35550;SDS011;21655;46.056;13.616;2022-10-18T04:55:49;56.78;;;29.30;;
35550;SDS011;21655;46.056;13.616;2022-10-18T04:58:15;46.35;;;27.90;;
35550;SDS011;21655;46.056;13.616;2022-10-18T05:00:41;47.80;;;28.08;;
35550;SDS011;21655;46.056;13.616;2022-10-18T05:03:07;52.38;;;28.13;;
35550;SDS011;21655;46.056;13.616;2022-10-18T05:05:33;57.42;;;28.55;;
35550;SDS011;21655;46.056;13.616;2022-10-18T05:07:58;60.70;;;28.08;;
35550;SDS011;21655;46.056;13.616;2022-10-18T05:10:24;51.33;;;29.00;;
35550;SDS011;21655;46.056;13.616;2022-10-18T05:12:49;51.88;;;27.83;;
35550;SDS011;21655;46.056;13.616;2022-10-18T05:15:15;45.55;;;27.27;;
35550;SDS011;21655;46.056;13.616;2022-10-18T05:17:40;50.80;;;28.67;;
35550;SDS011;21655;46.056;13.616;2022-10-18T05:20:05;54.50;;;29.65;;
35550;SDS011;21655;46.056;13.616;2022-10-18T05:22:31;53.13;;;29.55;;
35550;SDS011;21655;46.056;13.616;2022-10-18T05:24:57;50.42;;;28.67;;
35550;SDS011;21655;46.056;13.616;2022-10-18T05:27:22;49.35;;;28.38;;
35550;SDS011;21655;46.056;13.616;2022-10-18T05:29:47;51.15;;;28.08;;
35550;SDS011;21655;46.056;13.616;2022-10-18T05:32:13;46.38;;;26.02;;
35550;SDS011;21655;46.056;13.616;2022-10-18T05:34:38;47.65;;;27.60;;
35550;SDS011;21655;46.056;13.616;2022-10-18T05:37:04;45.58;;;27.85;;
35550;SDS011;21655;46.056;13.616;2022-10-18T05:39:29;59.70;;;27.58;;
35550;SDS011;21655;46.056;13.616;2022-10-18T05:41:55;47.90;;;27.23;;
35550;SDS011;21655;46.056;13.616;2022-10-18T05:44:20;52.50;;;29.20;;
35550;SDS011;21655;46.056;13.616;2022-10-18T05:46:46;43.72;;;27.52;;
35550;SDS011;21655;46.056;13.616;2022-10-18T05:49:11;58.30;;;28.08;;
35550;SDS011;21655;46.056;13.616;2022-10-18T05:51:37;55.33;;;28.13;;
35550;SDS011;21655;46.056;13.616;2022-10-18T05:54:03;68.53;;;28.50;;
35550;SDS011;21655;46.056;13.616;2022-10-18T05:56:28;55.88;;;28.38;;
35550;SDS011;21655;46.056;13.616;2022-10-18T05:58:54;58.67;;;28.02;;
35550;SDS011;21655;46.056;13.616;2022-10-18T06:01:19;59.20;;;28.88;;
35550;SDS011;21655;46.056;13.616;2022-10-18T06:03:45;53.88;;;28.33;;
35550;SDS011;21655;46.056;13.616;2022-10-18T06:06:11;55.30;;;28.95;;
35550;SDS011;21655;46.056;13.616;2022-10-18T06:08:37;41.53;;;25.60;;
35550;SDS011;21655;46.056;13.616;2022-10-18T06:11:13;48.63;;;26.92;;
35550;SDS011;21655;46.056;13.616;2022-10-18T06:13:41;43.83;;;26.85;;
35550;SDS011;21655;46.056;13.616;2022-10-18T06:16:11;60.08;;;27.40;;
35550;SDS011;21655;46.056;13.616;2022-10-18T06:18:37;45.83;;;24.38;;
35550;SDS011;21655;46.056;13.616;2022-10-18T06:21:03;51.80;;;26.13;;
35550;SDS011;21655;46.056;13.616;2022-10-18T06:23:29;44.17;;;25.95;;
35550;SDS011;21655;46.056;13.616;2022-10-18T06:26:01;57.75;;;27.60;;
35550;SDS011;21655;46.056;13.616;2022-10-18T06:28:32;50.90;;;24.65;;
35550;SDS011;21655;46.056;13.616;2022-10-18T06:30:58;40.38;;;24.15;;
35550;SDS011;21655;46.056;13.616;2022-10-18T06:33:24;46.40;;;23.85;;
35550;SDS011;21655;46.056;13.616;2022-10-18T06:35:54;48.58;;;25.80;;
35550;SDS011;21655;46.056;13.616;2022-10-18T06:38:19;41.80;;;24.02;;
35550;SDS011;21655;46.056;13.616;2022-10-18T06:40:46;52.00;;;24.85;;
35550;SDS011;21655;46.056;13.616;2022-10-18T06:43:12;41.95;;;22.25;;
35550;SDS011;21655;46.056;13.616;2022-10-18T06:45:37;50.33;;;21.65;;
35550;SDS011;21655;46.056;13.616;2022-10-18T06:48:03;29.05;;;18.90;;
35550;SDS011;21655;46.056;13.616;2022-10-18T06:50:29;26.02;;;18.42;;
35550;SDS011;21655;46.056;13.616;2022-10-18T06:52:54;26.15;;;17.63;;
35550;SDS011;21655;46.056;13.616;2022-10-18T06:55:19;33.10;;;17.75;;
35550;SDS011;21655;46.056;13.616;2022-10-18T06:57:45;25.67;;;16.90;;
35550;SDS011;21655;46.056;13.616;2022-10-18T07:00:11;26.40;;;16.52;;
35550;SDS011;21655;46.056;13.616;2022-10-18T07:02:37;27.40;;;16.40;;
35550;SDS011;21655;46.056;13.616;2022-10-18T07:05:05;23.30;;;15.65;;
35550;SDS011;21655;46.056;13.616;2022-10-18T07:07:31;24.88;;;15.57;;
35550;SDS011;21655;46.056;13.616;2022-10-18T07:09:56;29.35;;;16.92;;
35550;SDS011;21655;46.056;13.616;2022-10-18T07:12:22;24.85;;;15.80;;
35550;SDS011;21655;46.056;13.616;2022-10-18T07:14:47;29.38;;;16.67;;
35550;SDS011;21655;46.056;13.616;2022-10-18T07:17:13;27.27;;;16.58;;
35550;SDS011;21655;46.056;13.616;2022-10-18T07:19:38;24.35;;;15.90;;
35550;SDS011;21655;46.056;13.616;2022-10-18T07:22:03;22.83;;;15.75;;
35550;SDS011;21655;46.056;13.616;2022-10-18T07:24:29;22.92;;;15.75;;
35550;SDS011;21655;46.056;13.616;2022-10-18T07:26:54;21.15;;;15.25;;
35550;SDS011;21655;46.056;13.616;2022-10-18T07:29:20;23.10;;;14.75;;
35550;SDS011;21655;46.056;13.616;2022-10-18T07:31:45;24.45;;;14.50;;
35550;SDS011;21655;46.056;13.616;2022-10-18T07:34:11;20.23;;;14.25;;
35550;SDS011;21655;46.056;13.616;2022-10-18T07:36:37;22.75;;;14.98;;
35550;SDS011;21655;46.056;13.616;2022-10-18T07:39:03;21.73;;;14.60;;
35550;SDS011;21655;46.056;13.616;2022-10-18T07:41:29;17.92;;;14.25;;
35550;SDS011;21655;46.056;13.616;2022-10-18T07:43:57;22.92;;;15.00;;
35550;SDS011;21655;46.056;13.616;2022-10-18T07:46:22;23.75;;;16.10;;
35550;SDS011;21655;46.056;13.616;2022-10-18T07:48:48;22.40;;;15.18;;
35550;SDS011;21655;46.056;13.616;2022-10-18T07:51:14;22.42;;;15.95;;
35550;SDS011;21655;46.056;13.616;2022-10-18T07:53:40;32.35;;;15.07;;
35550;SDS011;21655;46.056;13.616;2022-10-18T07:56:07;25.50;;;15.10;;
35550;SDS011;21655;46.056;13.616;2022-10-18T07:58:39;29.42;;;15.68;;
35550;SDS011;21655;46.056;13.616;2022-10-18T08:01:05;19.67;;;14.18;;
35550;SDS011;21655;46.056;13.616;2022-10-18T08:03:32;21.50;;;14.70;;
35550;SDS011;21655;46.056;13.616;2022-10-18T08:05:58;20.75;;;15.50;;
35550;SDS011;21655;46.056;13.616;2022-10-18T08:08:24;17.38;;;14.48;;
35550;SDS011;21655;46.056;13.616;2022-10-18T08:10:50;20.00;;;14.07;;
35550;SDS011;21655;46.056;13.616;2022-10-18T08:13:16;28.05;;;14.35;;
35550;SDS011;21655;46.056;13.616;2022-10-18T08:15:42;21.25;;;14.05;;
35550;SDS011;21655;46.056;13.616;2022-10-18T08:18:08;25.27;;;14.52;;
35550;SDS011;21655;46.056;13.616;2022-10-18T08:20:34;22.67;;;14.05;;
35550;SDS011;21655;46.056;13.616;2022-10-18T08:23:01;28.75;;;13.70;;
35550;SDS011;21655;46.056;13.616;2022-10-18T08:25:27;21.13;;;13.38;;
35550;SDS011;21655;46.056;13.616;2022-10-18T08:27:54;22.90;;;13.68;;
35550;SDS011;21655;46.056;13.616;2022-10-18T08:30:19;17.88;;;14.10;;
35550;SDS011;21655;46.056;13.616;2022-10-18T08:32:45;25.55;;;16.58;;
35550;SDS011;21655;46.056;13.616;2022-10-18T08:35:10;24.42;;;14.93;;
35550;SDS011;21655;46.056;13.616;2022-10-18T08:37:35;20.35;;;14.10;;
35550;SDS011;21655;46.056;13.616;2022-10-18T08:40:01;25.73;;;14.20;;
35550;SDS011;21655;46.056;13.616;2022-10-18T08:45:18;20.58;;;15.05;;
35550;SDS011;21655;46.056;13.616;2022-10-18T08:47:44;22.58;;;14.70;;
35550;SDS011;21655;46.056;13.616;2022-10-18T08:58:20;28.33;;;17.45;;
35550;SDS011;21655;46.056;13.616;2022-10-18T09:01:12;19.55;;;15.02;;
35550;SDS011;21655;46.056;13.616;2022-10-18T09:12:30;22.20;;;13.50;;
35550;SDS011;21655;46.056;13.616;2022-10-18T09:17:59;17.73;;;13.10;;
35550;SDS011;21655;46.056;13.616;2022-10-18T09:20:32;19.15;;;13.77;;
35550;SDS011;21655;46.056;13.616;2022-10-18T09:23:35;18.70;;;13.50;;
35550;SDS011;21655;46.056;13.616;2022-10-18T09:26:15;19.63;;;12.52;;
35550;SDS011;21655;46.056;13.616;2022-10-18T09:34:21;19.00;;;13.02;;
35550;SDS011;21655;46.056;13.616;2022-10-18T09:36:49;16.52;;;12.27;;
35550;SDS011;21655;46.056;13.616;2022-10-18T09:39:21;17.15;;;12.73;;
35550;SDS011;21655;46.056;13.616;2022-10-18T09:41:53;16.42;;;12.18;;
35550;SDS011;21655;46.056;13.616;2022-10-18T09:44:24;23.92;;;12.32;;
35550;SDS011;21655;46.056;13.616;2022-10-18T09:46:55;19.75;;;12.55;;
35550;SDS011;21655;46.056;13.616;2022-10-18T09:49:30;15.68;;;11.98;;
35550;SDS011;21655;46.056;13.616;2022-10-18T09:52:01;17.02;;;12.73;;
35550;SDS011;21655;46.056;13.616;2022-10-18T09:54:40;21.23;;;14.07;;
35550;SDS011;21655;46.056;13.616;2022-10-18T09:57:18;19.25;;;12.85;;
35550;SDS011;21655;46.056;13.616;2022-10-18T09:59:50;19.77;;;12.73;;
35550;SDS011;21655;46.056;13.616;2022-10-18T10:02:17;23.23;;;12.85;;
35550;SDS011;21655;46.056;13.616;2022-10-18T10:04:46;19.35;;;12.32;;
35550;SDS011;21655;46.056;13.616;2022-10-18T10:07:12;16.15;;;11.82;;
35550;SDS011;21655;46.056;13.616;2022-10-18T10:09:48;20.10;;;12.13;;
35550;SDS011;21655;46.056;13.616;2022-10-18T10:12:30;20.60;;;11.80;;
35550;SDS011;21655;46.056;13.616;2022-10-18T10:17:56;23.40;;;12.40;;
35550;SDS011;21655;46.056;13.616;2022-10-18T10:20:24;18.98;;;12.38;;
35550;SDS011;21655;46.056;13.616;2022-10-18T10:25:50;20.48;;;12.50;;
35550;SDS011;21655;46.056;13.616;2022-10-18T10:28:40;19.23;;;11.95;;
35550;SDS011;21655;46.056;13.616;2022-10-18T10:33:44;20.88;;;12.43;;
35550;SDS011;21655;46.056;13.616;2022-10-18T10:36:16;17.42;;;12.52;;
35550;SDS011;21655;46.056;13.616;2022-10-18T10:38:43;24.30;;;12.43;;
35550;SDS011;21655;46.056;13.616;2022-10-18T10:41:19;19.23;;;12.70;;
35550;SDS011;21655;46.056;13.616;2022-10-18T10:43:46;20.88;;;13.57;;
35550;SDS011;21655;46.056;13.616;2022-10-18T10:46:13;20.95;;;13.25;;
35550;SDS011;21655;46.056;13.616;2022-10-18T10:48:46;14.20;;;12.23;;
35550;SDS011;21655;46.056;13.616;2022-10-18T10:54:33;16.05;;;12.40;;
35550;SDS011;21655;46.056;13.616;2022-10-18T10:57:06;16.33;;;12.65;;
35550;SDS011;21655;46.056;13.616;2022-10-18T10:59:48;18.70;;;12.60;;
35550;SDS011;21655;46.056;13.616;2022-10-18T11:04:51;15.45;;;12.48;;
35550;SDS011;21655;46.056;13.616;2022-10-18T11:10:15;16.52;;;13.25;;
35550;SDS011;21655;46.056;13.616;2022-10-18T11:12:44;18.83;;;13.20;;
35550;SDS011;21655;46.056;13.616;2022-10-18T11:21:24;15.40;;;12.77;;
35550;SDS011;21655;46.056;13.616;2022-10-18T11:23:33;15.68;;;12.93;;
35550;SDS011;21655;46.056;13.616;2022-10-18T12:00:57;23.23;;;16.60;;
35550;SDS011;21655;46.056;13.616;2022-10-18T12:03:41;22.70;;;17.23;;
35550;SDS011;21655;46.056;13.616;2022-10-18T12:06:16;19.70;;;15.68;;
35550;SDS011;21655;46.056;13.616;2022-10-18T12:08:45;22.60;;;16.00;;
35550;SDS011;21655;46.056;13.616;2022-10-18T12:11:22;21.88;;;16.92;;
35550;SDS011;21655;46.056;13.616;2022-10-18T12:13:55;21.90;;;16.52;;
35550;SDS011;21655;46.056;13.616;2022-10-18T12:16:24;21.63;;;15.75;;
35550;SDS011;21655;46.056;13.616;2022-10-18T12:21:25;21.63;;;16.45;;
35550;SDS011;21655;46.056;13.616;2022-10-18T12:23:57;20.52;;;15.68;;
35550;SDS011;21655;46.056;13.616;2022-10-18T12:26:26;23.05;;;16.02;;
35550;SDS011;21655;46.056;13.616;2022-10-18T12:31:36;25.55;;;16.77;;
35550;SDS011;21655;46.056;13.616;2022-10-18T12:39:48;23.35;;;15.85;;
35550;SDS011;21655;46.056;13.616;2022-10-18T12:42:28;25.15;;;16.67;;
35550;SDS011;21655;46.056;13.616;2022-10-18T12:47:36;22.92;;;17.38;;
35550;SDS011;21655;46.056;13.616;2022-10-18T12:50:04;23.90;;;16.27;;
35550;SDS011;21655;46.056;13.616;2022-10-18T12:52:31;23.58;;;16.55;;
35550;SDS011;21655;46.056;13.616;2022-10-18T12:55:34;22.75;;;16.25;;
35550;SDS011;21655;46.056;13.616;2022-10-18T13:24:46;30.42;;;19.90;;
35550;SDS011;21655;46.056;13.616;2022-10-18T13:30:47;29.15;;;19.73;;
35550;SDS011;21655;46.056;13.616;2022-10-18T13:35:53;28.63;;;21.75;;
35550;SDS011;21655;46.056;13.616;2022-10-18T13:38:30;34.47;;;22.45;;
35550;SDS011;21655;46.056;13.616;2022-10-18T13:46:23;31.60;;;23.13;;
35550;SDS011;21655;46.056;13.616;2022-10-18T13:48:59;34.35;;;23.70;;
35550;SDS011;21655;46.056;13.616;2022-10-18T13:54:35;33.20;;;24.70;;
35550;SDS011;21655;46.056;13.616;2022-10-18T14:02:58;37.30;;;26.70;;
35550;SDS011;21655;46.056;13.616;2022-10-18T14:05:54;36.60;;;24.42;;
35550;SDS011;21655;46.056;13.616;2022-10-18T14:08:33;34.10;;;24.05;;
35550;SDS011;21655;46.056;13.616;2022-10-18T14:11:17;35.70;;;26.15;;
35550;SDS011;21655;46.056;13.616;2022-10-18T14:16:49;39.90;;;28.67;;
35550;SDS011;21655;46.056;13.616;2022-10-18T14:19:42;41.10;;;28.15;;
35550;SDS011;21655;46.056;13.616;2022-10-18T14:25:16;43.58;;;29.92;;
35550;SDS011;21655;46.056;13.616;2022-10-18T14:27:44;47.22;;;30.75;;
35550;SDS011;21655;46.056;13.616;2022-10-18T14:32:44;45.13;;;30.73;;
35550;SDS011;21655;46.056;13.616;2022-10-18T14:35:15;44.13;;;30.48;;
35550;SDS011;21655;46.056;13.616;2022-10-18T14:37:41;36.72;;;28.48;;
35550;SDS011;21655;46.056;13.616;2022-10-18T14:40:24;41.20;;;27.98;;
35550;SDS011;21655;46.056;13.616;2022-10-18T14:43:05;37.67;;;26.75;;
35550;SDS011;21655;46.056;13.616;2022-10-18T14:45:33;39.33;;;25.95;;
35550;SDS011;21655;46.056;13.616;2022-10-18T14:48:32;46.35;;;28.02;;
35550;SDS011;21655;46.056;13.616;2022-10-18T14:50:57;33.42;;;23.67;;
35550;SDS011;21655;46.056;13.616;2022-10-18T14:55:55;35.33;;;23.05;;
35550;SDS011;21655;46.056;13.616;2022-10-18T14:58:24;35.72;;;23.23;;
35550;SDS011;21655;46.056;13.616;2022-10-18T15:00:51;32.60;;;24.88;;
35550;SDS011;21655;46.056;13.616;2022-10-18T15:03:16;34.90;;;23.67;;
35550;SDS011;21655;46.056;13.616;2022-10-18T15:05:53;34.03;;;24.85;;
35550;SDS011;21655;46.056;13.616;2022-10-18T15:08:27;35.83;;;23.08;;
35550;SDS011;21655;46.056;13.616;2022-10-18T15:11:00;32.22;;;23.58;;
35550;SDS011;21655;46.056;13.616;2022-10-18T15:13:26;33.28;;;23.77;;
35550;SDS011;21655;46.056;13.616;2022-10-18T15:15:52;34.72;;;24.30;;
35550;SDS011;21655;46.056;13.616;2022-10-18T15:18:22;33.60;;;24.35;;
35550;SDS011;21655;46.056;13.616;2022-10-18T15:21:08;33.50;;;23.85;;
35550;SDS011;21655;46.056;13.616;2022-10-18T15:23:46;35.45;;;24.20;;
35550;SDS011;21655;46.056;13.616;2022-10-18T15:26:13;39.58;;;26.38;;
35550;SDS011;21655;46.056;13.616;2022-10-18T15:28:43;39.20;;;26.35;;
35550;SDS011;21655;46.056;13.616;2022-10-18T15:31:27;38.30;;;24.73;;
35550;SDS011;21655;46.056;13.616;2022-10-18T15:34:05;39.50;;;26.52;;
35550;SDS011;21655;46.056;13.616;2022-10-18T15:36:51;41.60;;;26.67;;
35550;SDS011;21655;46.056;13.616;2022-10-18T15:39:27;41.05;;;27.17;;
35550;SDS011;21655;46.056;13.616;2022-10-18T15:41:57;42.80;;;26.88;;
35550;SDS011;21655;46.056;13.616;2022-10-18T15:44:26;39.00;;;25.63;;
35550;SDS011;21655;46.056;13.616;2022-10-18T15:52:26;44.15;;;26.85;;
35550;SDS011;21655;46.056;13.616;2022-10-18T15:57:21;45.50;;;27.23;;
35550;SDS011;21655;46.056;13.616;2022-10-18T15:59:52;42.13;;;28.73;;
35550;SDS011;21655;46.056;13.616;2022-10-18T16:02:22;41.50;;;28.27;;
35550;SDS011;21655;46.056;13.616;2022-10-18T16:04:48;43.95;;;29.15;;
35550;SDS011;21655;46.056;13.616;2022-10-18T16:07:13;46.75;;;29.38;;
35550;SDS011;21655;46.056;13.616;2022-10-18T16:09:39;44.38;;;28.42;;
35550;SDS011;21655;46.056;13.616;2022-10-18T16:12:04;48.72;;;31.42;;
35550;SDS011;21655;46.056;13.616;2022-10-18T16:14:30;48.92;;;31.30;;
35550;SDS011;21655;46.056;13.616;2022-10-18T16:17:01;44.42;;;30.45;;
35550;SDS011;21655;46.056;13.616;2022-10-18T16:19:28;47.15;;;29.95;;
35550;SDS011;21655;46.056;13.616;2022-10-18T16:21:55;50.55;;;31.80;;
35550;SDS011;21655;46.056;13.616;2022-10-18T16:24:20;50.25;;;32.55;;
35550;SDS011;21655;46.056;13.616;2022-10-18T16:26:46;54.20;;;32.35;;
35550;SDS011;21655;46.056;13.616;2022-10-18T16:29:13;46.28;;;31.08;;
35550;SDS011;21655;46.056;13.616;2022-10-18T16:31:42;50.00;;;30.85;;
35550;SDS011;21655;46.056;13.616;2022-10-18T16:34:08;55.15;;;31.90;;
35550;SDS011;21655;46.056;13.616;2022-10-18T16:36:38;58.50;;;34.08;;
35550;SDS011;21655;46.056;13.616;2022-10-18T16:39:04;54.58;;;33.85;;
35550;SDS011;21655;46.056;13.616;2022-10-18T16:41:32;53.83;;;32.80;;
35550;SDS011;21655;46.056;13.616;2022-10-18T16:43:58;52.28;;;33.90;;
35550;SDS011;21655;46.056;13.616;2022-10-18T16:46:28;53.50;;;34.25;;
35550;SDS011;21655;46.056;13.616;2022-10-18T16:48:55;57.50;;;36.92;;
35550;SDS011;21655;46.056;13.616;2022-10-18T16:51:21;66.18;;;36.05;;
35550;SDS011;21655;46.056;13.616;2022-10-18T16:53:47;60.30;;;34.65;;
35550;SDS011;21655;46.056;13.616;2022-10-18T16:56:16;59.15;;;36.35;;
35550;SDS011;21655;46.056;13.616;2022-10-18T16:58:44;53.70;;;35.20;;
35550;SDS011;21655;46.056;13.616;2022-10-18T17:01:19;59.95;;;36.67;;
35550;SDS011;21655;46.056;13.616;2022-10-18T17:03:46;64.70;;;37.28;;
35550;SDS011;21655;46.056;13.616;2022-10-18T17:08:46;67.28;;;40.33;;
35550;SDS011;21655;46.056;13.616;2022-10-18T17:11:12;60.08;;;35.92;;
35550;SDS011;21655;46.056;13.616;2022-10-18T17:13:39;62.80;;;39.35;;
35550;SDS011;21655;46.056;13.616;2022-10-18T17:16:05;54.38;;;37.88;;
35550;SDS011;21655;46.056;13.616;2022-10-18T17:18:34;69.18;;;39.65;;
35550;SDS011;21655;46.056;13.616;2022-10-18T17:20:59;69.78;;;37.92;;
35550;SDS011;21655;46.056;13.616;2022-10-18T17:23:27;62.40;;;39.00;;
35550;SDS011;21655;46.056;13.616;2022-10-18T17:25:53;64.18;;;38.90;;
35550;SDS011;21655;46.056;13.616;2022-10-18T17:28:18;66.43;;;40.90;;
35550;SDS011;21655;46.056;13.616;2022-10-18T17:30:45;69.88;;;39.47;;
35550;SDS011;21655;46.056;13.616;2022-10-18T17:33:11;66.53;;;39.88;;
35550;SDS011;21655;46.056;13.616;2022-10-18T17:35:38;66.28;;;40.55;;